sensor_id;sensor_type;location;lat;lon;timestamp;temperature;humidity
22469;DHT22;11401;50.792;4.352;2022-11-03T00:02:00;20.10;56.70
22469;DHT22;11401;50.792;4.352;2022-11-03T00:04:27;20.10;56.80
22469;DHT22;11401;50.792;4.352;2022-11-03T00:06:54;20.00;55.90
22469;DHT22;11401;50.792;4.352;2022-11-03T00:09:22;20.00;56.70
22469;DHT22;11401;50.792;4.352;2022-11-03T00:11:50;20.00;56.80
22469;DHT22;11401;50.792;4.352;2022-11-03T00:14:17;19.90;56.30
22469;DHT22;11401;50.792;4.352;2022-11-03T00:16:44;19.90;56.50
22469;DHT22;11401;50.792;4.352;2022-11-03T00:19:12;20.10;57.60
22469;DHT22;11401;50.792;4.352;2022-11-03T00:21:41;20.20;58.60
22469;DHT22;11401;50.792;4.352;2022-11-03T00:24:08;20.10;56.70
22469;DHT22;11401;50.792;4.352;2022-11-03T00:26:36;20.00;55.70
22469;DHT22;11401;50.792;4.352;2022-11-03T00:29:10;19.90;57.20
22469;DHT22;11401;50.792;4.352;2022-11-03T00:31:40;19.90;56.30
22469;DHT22;11401;50.792;4.352;2022-11-03T00:34:08;19.80;56.70
22469;DHT22;11401;50.792;4.352;2022-11-03T00:36:40;19.90;57.10
22469;DHT22;11401;50.792;4.352;2022-11-03T00:39:08;19.90;57.10
22469;DHT22;11401;50.792;4.352;2022-11-03T00:41:36;19.90;57.40
22469;DHT22;11401;50.792;4.352;2022-11-03T00:44:03;20.00;56.70
22469;DHT22;11401;50.792;4.352;2022-11-03T00:46:30;19.90;56.10
22469;DHT22;11401;50.792;4.352;2022-11-03T00:49:02;19.80;56.60
22469;DHT22;11401;50.792;4.352;2022-11-03T00:51:29;19.90;57.90
22469;DHT22;11401;50.792;4.352;2022-11-03T00:53:58;19.80;56.70
22469;DHT22;11401;50.792;4.352;2022-11-03T00:56:32;19.80;57.40
22469;DHT22;11401;50.792;4.352;2022-11-03T00:59:00;19.90;57.20
22469;DHT22;11401;50.792;4.352;2022-11-03T01:01:33;20.00;57.60
22469;DHT22;11401;50.792;4.352;2022-11-03T01:04:06;20.00;57.50
22469;DHT22;11401;50.792;4.352;2022-11-03T01:06:54;20.00;57.70
22469;DHT22;11401;50.792;4.352;2022-11-03T01:09:48;19.90;56.90
22469;DHT22;11401;50.792;4.352;2022-11-03T01:12:17;19.90;57.60
22469;DHT22;11401;50.792;4.352;2022-11-03T01:14:50;19.80;56.20
22469;DHT22;11401;50.792;4.352;2022-11-03T01:17:22;19.90;58.90
22469;DHT22;11401;50.792;4.352;2022-11-03T01:19:49;19.90;57.30
22469;DHT22;11401;50.792;4.352;2022-11-03T01:22:17;19.70;56.60
22469;DHT22;11401;50.792;4.352;2022-11-03T01:24:45;19.70;57.60
22469;DHT22;11401;50.792;4.352;2022-11-03T01:27:15;19.70;57.50
22469;DHT22;11401;50.792;4.352;2022-11-03T01:29:42;19.70;57.80
22469;DHT22;11401;50.792;4.352;2022-11-03T01:32:10;19.70;57.70
22469;DHT22;11401;50.792;4.352;2022-11-03T01:34:37;19.80;59.10
22469;DHT22;11401;50.792;4.352;2022-11-03T01:37:04;19.80;57.80
22469;DHT22;11401;50.792;4.352;2022-11-03T01:39:31;20.00;58.40
22469;DHT22;11401;50.792;4.352;2022-11-03T01:41:59;19.90;57.90
22469;DHT22;11401;50.792;4.352;2022-11-03T01:44:29;19.90;57.70
22469;DHT22;11401;50.792;4.352;2022-11-03T01:47:12;19.90;57.60
22469;DHT22;11401;50.792;4.352;2022-11-03T01:49:45;19.90;57.40
22469;DHT22;11401;50.792;4.352;2022-11-03T01:52:25;19.70;57.00
22469;DHT22;11401;50.792;4.352;2022-11-03T01:55:03;19.70;56.90
22469;DHT22;11401;50.792;4.352;2022-11-03T01:57:40;19.50;57.40
22469;DHT22;11401;50.792;4.352;2022-11-03T02:00:09;19.60;58.30
22469;DHT22;11401;50.792;4.352;2022-11-03T02:02:40;19.70;58.50
22469;DHT22;11401;50.792;4.352;2022-11-03T02:05:09;19.70;58.70
22469;DHT22;11401;50.792;4.352;2022-11-03T02:07:40;19.70;58.10
22469;DHT22;11401;50.792;4.352;2022-11-03T02:10:09;19.70;58.40
22469;DHT22;11401;50.792;4.352;2022-11-03T02:12:36;19.70;57.90
22469;DHT22;11401;50.792;4.352;2022-11-03T02:15:07;19.80;58.00
22469;DHT22;11401;50.792;4.352;2022-11-03T02:17:35;19.90;59.10
22469;DHT22;11401;50.792;4.352;2022-11-03T02:20:09;19.80;58.90
22469;DHT22;11401;50.792;4.352;2022-11-03T02:22:58;19.80;58.10
22469;DHT22;11401;50.792;4.352;2022-11-03T02:25:58;19.80;58.00
22469;DHT22;11401;50.792;4.352;2022-11-03T02:28:28;19.70;57.80
22469;DHT22;11401;50.792;4.352;2022-11-03T02:31:10;19.80;58.00
22469;DHT22;11401;50.792;4.352;2022-11-03T02:34:15;19.80;58.60
22469;DHT22;11401;50.792;4.352;2022-11-03T02:36:49;19.70;57.40
22469;DHT22;11401;50.792;4.352;2022-11-03T02:39:36;19.70;58.60
22469;DHT22;11401;50.792;4.352;2022-11-03T02:42:06;19.70;58.10
22469;DHT22;11401;50.792;4.352;2022-11-03T02:44:36;19.80;59.00
22469;DHT22;11401;50.792;4.352;2022-11-03T02:47:07;19.80;57.60
22469;DHT22;11401;50.792;4.352;2022-11-03T02:49:39;19.70;58.80
22469;DHT22;11401;50.792;4.352;2022-11-03T03:03:41;19.70;58.00
22469;DHT22;11401;50.792;4.352;2022-11-03T03:06:18;19.70;58.40
22469;DHT22;11401;50.792;4.352;2022-11-03T03:08:53;19.60;58.30
22469;DHT22;11401;50.792;4.352;2022-11-03T03:11:21;19.60;59.80
22469;DHT22;11401;50.792;4.352;2022-11-03T03:14:19;19.50;58.30
22469;DHT22;11401;50.792;4.352;2022-11-03T03:20:02;19.50;59.10
22469;DHT22;11401;50.792;4.352;2022-11-03T03:22:38;19.50;58.40
22469;DHT22;11401;50.792;4.352;2022-11-03T03:25:47;19.50;58.70
22469;DHT22;11401;50.792;4.352;2022-11-03T03:28:12;19.50;59.80
22469;DHT22;11401;50.792;4.352;2022-11-03T03:30:42;19.60;59.50
22469;DHT22;11401;50.792;4.352;2022-11-03T03:33:12;19.30;58.60
22469;DHT22;11401;50.792;4.352;2022-11-03T03:35:42;19.50;59.90
22469;DHT22;11401;50.792;4.352;2022-11-03T03:38:18;19.50;59.40
22469;DHT22;11401;50.792;4.352;2022-11-03T03:40:50;19.60;59.90
22469;DHT22;11401;50.792;4.352;2022-11-03T03:43:19;19.60;59.40
22469;DHT22;11401;50.792;4.352;2022-11-03T03:45:48;19.60;59.40
22469;DHT22;11401;50.792;4.352;2022-11-03T03:48:17;19.70;59.60
22469;DHT22;11401;50.792;4.352;2022-11-03T03:50:45;19.70;59.30
22469;DHT22;11401;50.792;4.352;2022-11-03T03:53:14;19.60;58.90
22469;DHT22;11401;50.792;4.352;2022-11-03T03:55:44;19.60;59.00
22469;DHT22;11401;50.792;4.352;2022-11-03T03:58:13;19.60;59.30
22469;DHT22;11401;50.792;4.352;2022-11-03T04:00:41;19.60;59.30
22469;DHT22;11401;50.792;4.352;2022-11-03T04:03:17;19.60;58.90
22469;DHT22;11401;50.792;4.352;2022-11-03T04:05:44;19.60;59.50
22469;DHT22;11401;50.792;4.352;2022-11-03T04:08:12;19.60;59.40
22469;DHT22;11401;50.792;4.352;2022-11-03T04:10:40;19.60;60.00
22469;DHT22;11401;50.792;4.352;2022-11-03T04:13:27;19.60;59.30
22469;DHT22;11401;50.792;4.352;2022-11-03T04:16:14;19.50;58.90
22469;DHT22;11401;50.792;4.352;2022-11-03T04:18:59;19.40;59.60
22469;DHT22;11401;50.792;4.352;2022-11-03T04:21:45;19.50;59.50
22469;DHT22;11401;50.792;4.352;2022-11-03T04:24:30;19.40;59.30
22469;DHT22;11401;50.792;4.352;2022-11-03T04:27:04;19.40;59.80
22469;DHT22;11401;50.792;4.352;2022-11-03T04:29:36;19.40;60.00
22469;DHT22;11401;50.792;4.352;2022-11-03T04:32:13;19.40;59.20
22469;DHT22;11401;50.792;4.352;2022-11-03T04:34:41;19.40;59.70
22469;DHT22;11401;50.792;4.352;2022-11-03T04:37:11;19.40;60.20
22469;DHT22;11401;50.792;4.352;2022-11-03T04:39:38;19.50;60.30
22469;DHT22;11401;50.792;4.352;2022-11-03T04:42:16;19.60;60.10
22469;DHT22;11401;50.792;4.352;2022-11-03T04:44:48;19.50;59.00
22469;DHT22;11401;50.792;4.352;2022-11-03T04:47:16;19.50;59.80
22469;DHT22;11401;50.792;4.352;2022-11-03T04:49:44;19.50;59.90
22469;DHT22;11401;50.792;4.352;2022-11-03T04:52:20;19.40;60.00
22469;DHT22;11401;50.792;4.352;2022-11-03T04:54:49;19.40;60.10
22469;DHT22;11401;50.792;4.352;2022-11-03T04:57:18;19.40;60.40
22469;DHT22;11401;50.792;4.352;2022-11-03T04:59:46;19.60;60.70
22469;DHT22;11401;50.792;4.352;2022-11-03T05:02:16;19.60;59.90
22469;DHT22;11401;50.792;4.352;2022-11-03T05:04:44;19.60;59.90
22469;DHT22;11401;50.792;4.352;2022-11-03T05:07:30;19.60;60.00
22469;DHT22;11401;50.792;4.352;2022-11-03T05:09:59;19.70;59.60
22469;DHT22;11401;50.792;4.352;2022-11-03T05:12:26;19.50;59.40
22469;DHT22;11401;50.792;4.352;2022-11-03T05:14:54;19.50;60.50
22469;DHT22;11401;50.792;4.352;2022-11-03T05:17:26;19.50;59.40
22469;DHT22;11401;50.792;4.352;2022-11-03T05:20:00;19.50;60.70
22469;DHT22;11401;50.792;4.352;2022-11-03T05:22:33;19.60;59.30
22469;DHT22;11401;50.792;4.352;2022-11-03T05:25:09;19.50;59.60
22469;DHT22;11401;50.792;4.352;2022-11-03T05:27:49;19.60;60.60
22469;DHT22;11401;50.792;4.352;2022-11-03T05:30:16;19.60;59.90
22469;DHT22;11401;50.792;4.352;2022-11-03T05:32:43;19.60;60.10
22469;DHT22;11401;50.792;4.352;2022-11-03T05:35:21;19.60;60.00
22469;DHT22;11401;50.792;4.352;2022-11-03T05:37:49;19.50;59.50
22469;DHT22;11401;50.792;4.352;2022-11-03T05:40:20;19.60;59.80
22469;DHT22;11401;50.792;4.352;2022-11-03T05:42:51;19.60;60.00
22469;DHT22;11401;50.792;4.352;2022-11-03T05:45:22;19.70;60.00
22469;DHT22;11401;50.792;4.352;2022-11-03T05:47:53;19.70;59.90
22469;DHT22;11401;50.792;4.352;2022-11-03T05:50:26;19.70;59.80
22469;DHT22;11401;50.792;4.352;2022-11-03T05:53:03;19.80;60.00
22469;DHT22;11401;50.792;4.352;2022-11-03T05:55:34;19.70;59.30
22469;DHT22;11401;50.792;4.352;2022-11-03T06:00:41;19.40;59.40
22469;DHT22;11401;50.792;4.352;2022-11-03T06:03:16;19.50;59.80
22469;DHT22;11401;50.792;4.352;2022-11-03T06:05:45;19.50;59.40
22469;DHT22;11401;50.792;4.352;2022-11-03T06:08:17;19.30;59.80
22469;DHT22;11401;50.792;4.352;2022-11-03T06:10:56;19.20;59.60
22469;DHT22;11401;50.792;4.352;2022-11-03T06:13:31;19.20;60.90
22469;DHT22;11401;50.792;4.352;2022-11-03T06:18:46;19.40;60.80
22469;DHT22;11401;50.792;4.352;2022-11-03T06:21:18;19.50;60.70
22469;DHT22;11401;50.792;4.352;2022-11-03T06:23:47;19.40;59.40
22469;DHT22;11401;50.792;4.352;2022-11-03T06:26:20;19.50;59.60
22469;DHT22;11401;50.792;4.352;2022-11-03T06:28:48;19.50;60.40
22469;DHT22;11401;50.792;4.352;2022-11-03T06:31:35;19.40;59.20
22469;DHT22;11401;50.792;4.352;2022-11-03T06:37:07;19.50;60.30
22469;DHT22;11401;50.792;4.352;2022-11-03T06:39:39;19.40;58.70
22469;DHT22;11401;50.792;4.352;2022-11-03T06:42:15;19.50;60.30
22469;DHT22;11401;50.792;4.352;2022-11-03T06:44:47;19.60;59.20
22469;DHT22;11401;50.792;4.352;2022-11-03T06:47:21;19.60;59.50
22469;DHT22;11401;50.792;4.352;2022-11-03T06:49:58;19.50;59.60
22469;DHT22;11401;50.792;4.352;2022-11-03T06:52:31;19.50;59.30
22469;DHT22;11401;50.792;4.352;2022-11-03T06:57:46;19.50;58.90
22469;DHT22;11401;50.792;4.352;2022-11-03T07:00:18;19.50;59.40
22469;DHT22;11401;50.792;4.352;2022-11-03T07:03:22;19.60;59.60
22469;DHT22;11401;50.792;4.352;2022-11-03T07:05:50;19.50;59.60
22469;DHT22;11401;50.792;4.352;2022-11-03T07:10:50;19.30;60.10
22469;DHT22;11401;50.792;4.352;2022-11-03T07:13:23;19.30;59.40
22469;DHT22;11401;50.792;4.352;2022-11-03T07:15:51;19.30;59.50
22469;DHT22;11401;50.792;4.352;2022-11-03T07:18:28;19.30;58.30
22469;DHT22;11401;50.792;4.352;2022-11-03T07:20:57;19.20;59.10
22469;DHT22;11401;50.792;4.352;2022-11-03T07:23:28;19.10;59.50
22469;DHT22;11401;50.792;4.352;2022-11-03T07:26:01;19.00;59.40
22469;DHT22;11401;50.792;4.352;2022-11-03T07:28:32;19.00;58.50
22469;DHT22;11401;50.792;4.352;2022-11-03T07:31:01;18.80;59.40
22469;DHT22;11401;50.792;4.352;2022-11-03T07:33:42;18.80;58.90
22469;DHT22;11401;50.792;4.352;2022-11-03T07:36:18;18.90;59.50
22469;DHT22;11401;50.792;4.352;2022-11-03T07:38:49;18.90;58.80
22469;DHT22;11401;50.792;4.352;2022-11-03T07:41:23;18.80;58.30
22469;DHT22;11401;50.792;4.352;2022-11-03T07:43:58;18.80;58.90
22469;DHT22;11401;50.792;4.352;2022-11-03T07:46:26;18.70;58.40
22469;DHT22;11401;50.792;4.352;2022-11-03T07:48:57;18.60;59.80
22469;DHT22;11401;50.792;4.352;2022-11-03T07:53:56;18.60;59.20
22469;DHT22;11401;50.792;4.352;2022-11-03T07:56:33;18.60;59.50
22469;DHT22;11401;50.792;4.352;2022-11-03T08:01:55;18.60;59.80
22469;DHT22;11401;50.792;4.352;2022-11-03T08:04:31;18.60;58.80
22469;DHT22;11401;50.792;4.352;2022-11-03T08:06:59;18.60;60.20
22469;DHT22;11401;50.792;4.352;2022-11-03T08:09:26;18.60;59.50
22469;DHT22;11401;50.792;4.352;2022-11-03T08:11:53;18.60;60.00
22469;DHT22;11401;50.792;4.352;2022-11-03T08:14:20;18.60;59.10
22469;DHT22;11401;50.792;4.352;2022-11-03T08:16:47;18.50;60.10
22469;DHT22;11401;50.792;4.352;2022-11-03T08:19:14;18.60;60.00
22469;DHT22;11401;50.792;4.352;2022-11-03T08:21:41;18.60;60.50
22469;DHT22;11401;50.792;4.352;2022-11-03T08:24:08;18.60;59.20
22469;DHT22;11401;50.792;4.352;2022-11-03T08:26:35;18.50;59.60
22469;DHT22;11401;50.792;4.352;2022-11-03T08:29:02;18.50;59.80
22469;DHT22;11401;50.792;4.352;2022-11-03T08:31:29;18.50;60.40
22469;DHT22;11401;50.792;4.352;2022-11-03T08:33:56;18.50;59.80
22469;DHT22;11401;50.792;4.352;2022-11-03T08:36:23;18.50;59.60
22469;DHT22;11401;50.792;4.352;2022-11-03T08:38:49;18.50;59.40
22469;DHT22;11401;50.792;4.352;2022-11-03T08:41:16;18.60;60.40
22469;DHT22;11401;50.792;4.352;2022-11-03T08:43:43;18.70;60.40
22469;DHT22;11401;50.792;4.352;2022-11-03T08:46:10;18.60;58.80
22469;DHT22;11401;50.792;4.352;2022-11-03T08:48:44;18.60;58.90
22469;DHT22;11401;50.792;4.352;2022-11-03T08:51:12;18.60;60.20
22469;DHT22;11401;50.792;4.352;2022-11-03T08:53:40;18.60;59.40
22469;DHT22;11401;50.792;4.352;2022-11-03T08:56:11;18.50;59.10
22469;DHT22;11401;50.792;4.352;2022-11-03T08:58:42;18.60;59.40
22469;DHT22;11401;50.792;4.352;2022-11-03T09:01:09;18.50;60.10
22469;DHT22;11401;50.792;4.352;2022-11-03T09:03:37;18.40;60.10
22469;DHT22;11401;50.792;4.352;2022-11-03T09:06:04;18.40;60.00
22469;DHT22;11401;50.792;4.352;2022-11-03T09:08:31;18.40;60.30
22469;DHT22;11401;50.792;4.352;2022-11-03T09:11:18;18.30;59.80
22469;DHT22;11401;50.792;4.352;2022-11-03T09:13:45;18.40;61.00
22469;DHT22;11401;50.792;4.352;2022-11-03T09:16:12;18.50;60.10
22469;DHT22;11401;50.792;4.352;2022-11-03T09:18:39;18.50;59.50
22469;DHT22;11401;50.792;4.352;2022-11-03T09:21:06;18.50;60.00
22469;DHT22;11401;50.792;4.352;2022-11-03T09:23:34;18.50;59.20
22469;DHT22;11401;50.792;4.352;2022-11-03T09:26:01;18.60;60.00
22469;DHT22;11401;50.792;4.352;2022-11-03T09:28:28;18.50;59.20
22469;DHT22;11401;50.792;4.352;2022-11-03T09:30:54;18.50;59.80
22469;DHT22;11401;50.792;4.352;2022-11-03T09:33:21;18.70;61.00
22469;DHT22;11401;50.792;4.352;2022-11-03T09:35:48;18.90;60.00
22469;DHT22;11401;50.792;4.352;2022-11-03T09:38:15;18.80;58.40
22469;DHT22;11401;50.792;4.352;2022-11-03T09:40:42;18.80;59.00
22469;DHT22;11401;50.792;4.352;2022-11-03T09:43:10;18.70;58.60
22469;DHT22;11401;50.792;4.352;2022-11-03T09:45:37;18.70;59.80
22469;DHT22;11401;50.792;4.352;2022-11-03T09:48:11;18.60;59.40
22469;DHT22;11401;50.792;4.352;2022-11-03T09:50:38;18.80;61.20
22469;DHT22;11401;50.792;4.352;2022-11-03T09:53:08;18.80;59.20
22469;DHT22;11401;50.792;4.352;2022-11-03T09:55:35;18.60;59.00
22469;DHT22;11401;50.792;4.352;2022-11-03T09:58:12;18.80;61.00
22469;DHT22;11401;50.792;4.352;2022-11-03T10:00:40;18.90;59.80
22469;DHT22;11401;50.792;4.352;2022-11-03T10:03:11;19.10;60.50
22469;DHT22;11401;50.792;4.352;2022-11-03T10:05:39;19.00;59.30
22469;DHT22;11401;50.792;4.352;2022-11-03T10:08:15;19.00;58.80
22469;DHT22;11401;50.792;4.352;2022-11-03T10:10:51;19.10;59.20
22469;DHT22;11401;50.792;4.352;2022-11-03T10:13:29;19.00;58.40
22469;DHT22;11401;50.792;4.352;2022-11-03T10:15:59;19.00;58.80
22469;DHT22;11401;50.792;4.352;2022-11-03T10:18:27;19.10;58.90
22469;DHT22;11401;50.792;4.352;2022-11-03T10:20:54;19.20;59.80
22469;DHT22;11401;50.792;4.352;2022-11-03T10:23:21;19.20;58.30
22469;DHT22;11401;50.792;4.352;2022-11-03T10:25:48;19.30;57.90
22469;DHT22;11401;50.792;4.352;2022-11-03T10:33:39;19.30;57.70
22469;DHT22;11401;50.792;4.352;2022-11-03T10:38:42;19.40;58.90
22469;DHT22;11401;50.792;4.352;2022-11-03T10:41:13;19.50;58.50
22469;DHT22;11401;50.792;4.352;2022-11-03T10:46:31;19.70;58.60
22469;DHT22;11401;50.792;4.352;2022-11-03T10:49:18;19.60;57.40
22469;DHT22;11401;50.792;4.352;2022-11-03T10:51:49;19.50;57.30
22469;DHT22;11401;50.792;4.352;2022-11-03T10:54:18;19.50;57.20
22469;DHT22;11401;50.792;4.352;2022-11-03T10:56:46;19.50;57.40
22469;DHT22;11401;50.792;4.352;2022-11-03T10:59:23;19.50;57.50
22469;DHT22;11401;50.792;4.352;2022-11-03T11:01:58;19.60;57.90
22469;DHT22;11401;50.792;4.352;2022-11-03T11:04:26;19.50;57.20
22469;DHT22;11401;50.792;4.352;2022-11-03T11:06:53;19.60;58.80
22469;DHT22;11401;50.792;4.352;2022-11-03T11:09:25;19.70;58.60
22469;DHT22;11401;50.792;4.352;2022-11-03T11:12:16;19.80;58.20
22469;DHT22;11401;50.792;4.352;2022-11-03T11:15:00;19.80;57.80
22469;DHT22;11401;50.792;4.352;2022-11-03T11:17:46;19.80;57.10
22469;DHT22;11401;50.792;4.352;2022-11-03T11:22:48;19.90;57.50
22469;DHT22;11401;50.792;4.352;2022-11-03T11:25:17;19.80;57.30
22469;DHT22;11401;50.792;4.352;2022-11-03T11:37:53;20.00;57.80
22469;DHT22;11401;50.792;4.352;2022-11-03T11:48:37;20.20;56.20
22469;DHT22;11401;50.792;4.352;2022-11-03T11:51:08;20.20;56.90
22469;DHT22;11401;50.792;4.352;2022-11-03T11:53:38;20.10;56.40
22469;DHT22;11401;50.792;4.352;2022-11-03T11:56:11;20.00;55.80
22469;DHT22;11401;50.792;4.352;2022-11-03T11:58:50;19.90;55.80
22469;DHT22;11401;50.792;4.352;2022-11-03T12:01:29;20.00;57.00
22469;DHT22;11401;50.792;4.352;2022-11-03T12:04:07;19.90;56.10
22469;DHT22;11401;50.792;4.352;2022-11-03T12:06:40;20.00;57.50
22469;DHT22;11401;50.792;4.352;2022-11-03T12:09:15;20.00;56.50
22469;DHT22;11401;50.792;4.352;2022-11-03T12:11:51;20.10;58.00
22469;DHT22;11401;50.792;4.352;2022-11-03T12:16:56;20.10;58.60
22469;DHT22;11401;50.792;4.352;2022-11-03T12:19:46;20.10;57.00
22469;DHT22;11401;50.792;4.352;2022-11-03T12:24:56;20.20;58.20
22469;DHT22;11401;50.792;4.352;2022-11-03T12:29:51;20.10;58.00
22469;DHT22;11401;50.792;4.352;2022-11-03T12:32:18;20.10;58.90
22469;DHT22;11401;50.792;4.352;2022-11-03T12:35:00;20.10;59.00
22469;DHT22;11401;50.792;4.352;2022-11-03T12:37:27;20.10;59.10
22469;DHT22;11401;50.792;4.352;2022-11-03T12:39:54;20.10;59.00
22469;DHT22;11401;50.792;4.352;2022-11-03T12:42:21;20.00;59.20
22469;DHT22;11401;50.792;4.352;2022-11-03T12:44:51;20.00;60.20
22469;DHT22;11401;50.792;4.352;2022-11-03T12:47:19;20.00;60.60
22469;DHT22;11401;50.792;4.352;2022-11-03T12:49:46;20.00;59.60
22469;DHT22;11401;50.792;4.352;2022-11-03T12:52:13;20.00;59.70
22469;DHT22;11401;50.792;4.352;2022-11-03T12:54:40;20.00;60.20
22469;DHT22;11401;50.792;4.352;2022-11-03T12:57:08;19.90;60.20
22469;DHT22;11401;50.792;4.352;2022-11-03T12:59:35;19.80;60.10
22469;DHT22;11401;50.792;4.352;2022-11-03T13:02:02;19.70;60.30
22469;DHT22;11401;50.792;4.352;2022-11-03T13:04:29;19.70;60.90
22469;DHT22;11401;50.792;4.352;2022-11-03T13:06:56;19.80;61.40
22469;DHT22;11401;50.792;4.352;2022-11-03T13:09:23;19.80;60.80
22469;DHT22;11401;50.792;4.352;2022-11-03T13:11:49;19.70;60.80
22469;DHT22;11401;50.792;4.352;2022-11-03T13:14:35;19.70;60.80
22469;DHT22;11401;50.792;4.352;2022-11-03T13:17:02;19.70;61.20
22469;DHT22;11401;50.792;4.352;2022-11-03T13:19:29;19.80;61.30
22469;DHT22;11401;50.792;4.352;2022-11-03T13:21:56;19.70;60.60
22469;DHT22;11401;50.792;4.352;2022-11-03T13:24:23;19.60;61.20
22469;DHT22;11401;50.792;4.352;2022-11-03T13:26:51;19.50;61.20
22469;DHT22;11401;50.792;4.352;2022-11-03T13:29:18;19.50;61.50
22469;DHT22;11401;50.792;4.352;2022-11-03T13:31:45;19.60;61.90
22469;DHT22;11401;50.792;4.352;2022-11-03T13:34:11;19.70;62.50
22469;DHT22;11401;50.792;4.352;2022-11-03T13:36:38;19.60;61.50
22469;DHT22;11401;50.792;4.352;2022-11-03T13:39:05;19.60;61.20
22469;DHT22;11401;50.792;4.352;2022-11-03T13:41:32;19.70;61.60
22469;DHT22;11401;50.792;4.352;2022-11-03T13:43:59;19.70;61.10
22469;DHT22;11401;50.792;4.352;2022-11-03T13:46:26;19.70;61.20
22469;DHT22;11401;50.792;4.352;2022-11-03T13:48:53;19.70;61.10
22469;DHT22;11401;50.792;4.352;2022-11-03T13:51:40;19.70;60.80
22469;DHT22;11401;50.792;4.352;2022-11-03T13:54:07;19.70;60.70
22469;DHT22;11401;50.792;4.352;2022-11-03T13:56:54;19.60;61.50
22469;DHT22;11401;50.792;4.352;2022-11-03T13:59:41;19.60;61.60
22469;DHT22;11401;50.792;4.352;2022-11-03T14:02:08;19.60;61.40
22469;DHT22;11401;50.792;4.352;2022-11-03T14:04:55;19.60;60.80
22469;DHT22;11401;50.792;4.352;2022-11-03T14:07:22;19.50;61.30
22469;DHT22;11401;50.792;4.352;2022-11-03T14:09:49;19.50;61.50
22469;DHT22;11401;50.792;4.352;2022-11-03T14:12:16;19.50;61.70
22469;DHT22;11401;50.792;4.352;2022-11-03T14:14:59;19.60;60.80
22469;DHT22;11401;50.792;4.352;2022-11-03T14:17:27;19.50;61.10
22469;DHT22;11401;50.792;4.352;2022-11-03T14:19:54;19.50;60.70
22469;DHT22;11401;50.792;4.352;2022-11-03T14:22:28;19.50;61.40
22469;DHT22;11401;50.792;4.352;2022-11-03T14:24:56;19.50;61.50
22469;DHT22;11401;50.792;4.352;2022-11-03T14:27:23;19.60;61.60
22469;DHT22;11401;50.792;4.352;2022-11-03T14:29:50;19.70;61.50
22469;DHT22;11401;50.792;4.352;2022-11-03T14:32:18;19.70;60.80
22469;DHT22;11401;50.792;4.352;2022-11-03T14:34:45;19.70;61.60
22469;DHT22;11401;50.792;4.352;2022-11-03T14:37:13;19.70;60.50
22469;DHT22;11401;50.792;4.352;2022-11-03T14:39:41;19.70;61.20
22469;DHT22;11401;50.792;4.352;2022-11-03T14:42:10;19.70;60.60
22469;DHT22;11401;50.792;4.352;2022-11-03T14:44:43;19.60;61.00
22469;DHT22;11401;50.792;4.352;2022-11-03T14:47:12;19.60;60.70
22469;DHT22;11401;50.792;4.352;2022-11-03T14:49:39;19.60;61.60
22469;DHT22;11401;50.792;4.352;2022-11-03T14:52:06;19.70;60.60
22469;DHT22;11401;50.792;4.352;2022-11-03T14:54:34;19.70;61.20
22469;DHT22;11401;50.792;4.352;2022-11-03T14:57:03;19.70;60.70
22469;DHT22;11401;50.792;4.352;2022-11-03T14:59:30;19.60;60.90
22469;DHT22;11401;50.792;4.352;2022-11-03T15:01:57;19.50;61.20
22469;DHT22;11401;50.792;4.352;2022-11-03T15:04:25;19.60;60.70
22469;DHT22;11401;50.792;4.352;2022-11-03T15:06:52;19.40;60.60
22469;DHT22;11401;50.792;4.352;2022-11-03T15:09:20;19.50;61.20
22469;DHT22;11401;50.792;4.352;2022-11-03T15:11:47;19.60;60.80
22469;DHT22;11401;50.792;4.352;2022-11-03T15:14:14;19.70;61.00
22469;DHT22;11401;50.792;4.352;2022-11-03T15:16:41;19.70;61.20
22469;DHT22;11401;50.792;4.352;2022-11-03T15:19:09;19.70;61.20
22469;DHT22;11401;50.792;4.352;2022-11-03T15:21:36;19.60;61.40
22469;DHT22;11401;50.792;4.352;2022-11-03T15:24:03;19.60;61.30
22469;DHT22;11401;50.792;4.352;2022-11-03T15:26:50;19.60;61.50
22469;DHT22;11401;50.792;4.352;2022-11-03T15:29:17;19.60;61.60
22469;DHT22;11401;50.792;4.352;2022-11-03T15:31:44;19.60;61.40
22469;DHT22;11401;50.792;4.352;2022-11-03T15:34:14;19.60;61.70
22469;DHT22;11401;50.792;4.352;2022-11-03T15:36:42;19.60;61.50
22469;DHT22;11401;50.792;4.352;2022-11-03T15:39:09;19.60;61.20
22469;DHT22;11401;50.792;4.352;2022-11-03T15:41:35;19.60;61.60
22469;DHT22;11401;50.792;4.352;2022-11-03T15:44:03;19.50;61.60
22469;DHT22;11401;50.792;4.352;2022-11-03T15:46:29;19.60;62.20
22469;DHT22;11401;50.792;4.352;2022-11-03T15:48:56;19.60;62.10
22469;DHT22;11401;50.792;4.352;2022-11-03T15:51:23;19.60;61.70
22469;DHT22;11401;50.792;4.352;2022-11-03T15:53:50;19.50;61.70
22469;DHT22;11401;50.792;4.352;2022-11-03T15:56:25;19.60;62.40
22469;DHT22;11401;50.792;4.352;2022-11-03T15:58:52;19.60;62.50
22469;DHT22;11401;50.792;4.352;2022-11-03T16:01:19;19.60;62.10
22469;DHT22;11401;50.792;4.352;2022-11-03T16:03:46;19.50;62.10
22469;DHT22;11401;50.792;4.352;2022-11-03T16:06:13;19.50;62.50
22469;DHT22;11401;50.792;4.352;2022-11-03T16:08:40;19.60;62.50
22469;DHT22;11401;50.792;4.352;2022-11-03T16:11:07;19.50;62.40
22469;DHT22;11401;50.792;4.352;2022-11-03T16:13:35;19.40;61.70
22469;DHT22;11401;50.792;4.352;2022-11-03T16:16:02;19.40;62.60
22469;DHT22;11401;50.792;4.352;2022-11-03T16:18:29;19.50;63.30
22469;DHT22;11401;50.792;4.352;2022-11-03T16:20:56;19.50;62.50
22469;DHT22;11401;50.792;4.352;2022-11-03T16:23:22;19.50;62.70
22469;DHT22;11401;50.792;4.352;2022-11-03T16:25:49;19.40;62.20
22469;DHT22;11401;50.792;4.352;2022-11-03T16:28:16;19.30;62.40
22469;DHT22;11401;50.792;4.352;2022-11-03T16:30:43;19.30;63.30
22469;DHT22;11401;50.792;4.352;2022-11-03T16:33:16;19.30;63.30
22469;DHT22;11401;50.792;4.352;2022-11-03T16:35:43;19.40;63.10
22469;DHT22;11401;50.792;4.352;2022-11-03T16:38:10;19.30;62.90
22469;DHT22;11401;50.792;4.352;2022-11-03T16:40:39;19.30;63.10
22469;DHT22;11401;50.792;4.352;2022-11-03T16:43:06;19.40;63.40
22469;DHT22;11401;50.792;4.352;2022-11-03T16:45:33;19.40;62.60
22469;DHT22;11401;50.792;4.352;2022-11-03T16:48:04;19.40;62.70
22469;DHT22;11401;50.792;4.352;2022-11-03T16:50:32;19.50;62.80
22469;DHT22;11401;50.792;4.352;2022-11-03T16:52:59;19.40;62.90
22469;DHT22;11401;50.792;4.352;2022-11-03T16:55:26;19.30;62.80
22469;DHT22;11401;50.792;4.352;2022-11-03T16:57:53;19.30;63.10
22469;DHT22;11401;50.792;4.352;2022-11-03T17:00:20;19.30;62.30
22469;DHT22;11401;50.792;4.352;2022-11-03T17:02:47;19.30;63.70
22469;DHT22;11401;50.792;4.352;2022-11-03T17:05:15;19.50;64.30
22469;DHT22;11401;50.792;4.352;2022-11-03T17:07:43;19.50;64.40